Time;durP1;ratioP1;P1;durP2;ratioP2;P2;SDS_P1;SDS_P2;PMS_P1;PMS_P2;Temp;Humidity;BMP_temperature;BMP_pressure;BME280_temperature;BME280_humidity;BME280_pressure;Samples;Min_cycle;Max_cycle;Signal;HPM_P1;HPM_P2
2022/04/17 00:02:03;;;;;;;3.15;2.95;;;;;;;;;;12663466;23;20208;-74
2022/04/17 00:07:04;;;;;;;2.78;2.67;;;;;;;;;;12662797;23;20685;-74
2022/04/17 00:12:06;;;;;;;3.53;3.08;;;;;;;;;;12665013;23;20189;-74
2022/04/17 00:17:07;;;;;;;3.08;2.88;;;;;;;;;;12664853;23;20200;-74
2022/04/17 00:22:08;;;;;;;3.25;3.05;;;;;;;;;;12662149;23;20204;-73
2022/04/17 00:27:10;;;;;;;2.58;2.47;;;;;;;;;;12662393;23;20220;-74
2022/04/17 00:32:11;;;;;;;2.88;2.72;;;;;;;;;;12661778;23;20209;-74
2022/04/17 00:37:12;;;;;;;2.40;2.30;;;;;;;;;;12662381;23;20197;-74
2022/04/17 00:42:13;;;;;;;2.30;2.30;;;;;;;;;;12662687;23;20205;-74
2022/04/17 00:47:17;;;;;;;2.25;2.10;;;;;;;;;;12662018;23;20181;-74
2022/04/17 00:52:21;;;;;;;2.67;2.40;;;;;;;;;;12661655;23;20231;-74
2022/04/17 00:57:23;;;;;;;2.00;1.92;;;;;;;;;;12662787;23;20252;-74
2022/04/17 01:02:24;;;;;;;2.47;2.33;;;;;;;;;;12660914;23;20200;-75
2022/04/17 01:07:25;;;;;;;1.88;1.88;;;;;;;;;;12661608;23;20280;-75
2022/04/17 01:12:26;;;;;;;2.30;2.30;;;;;;;;;;12662108;23;20189;-75
2022/04/17 01:17:27;;;;;;;1.98;1.92;;;;;;;;;;12663426;23;20534;-75
2022/04/17 01:22:28;;;;;;;1.92;1.88;;;;;;;;;;12662568;23;20184;-75
2022/04/17 01:27:30;;;;;;;2.17;2.13;;;;;;;;;;12662490;23;20623;-74
2022/04/17 01:32:31;;;;;;;2.42;2.30;;;;;;;;;;12661887;23;20288;-75
2022/04/17 01:37:32;;;;;;;2.30;2.20;;;;;;;;;;12662664;23;20703;-75
2022/04/17 01:42:33;;;;;;;3.13;2.88;;;;;;;;;;12662288;23;20220;-74
2022/04/17 01:47:34;;;;;;;3.40;3.20;;;;;;;;;;12665140;23;20257;-75
2022/04/17 01:52:35;;;;;;;2.97;2.88;;;;;;;;;;12663813;23;20513;-75
2022/04/17 01:57:36;;;;;;;3.57;3.37;;;;;;;;;;12664192;23;20199;-75
2022/04/17 02:02:37;;;;;;;4.25;3.92;;;;;;;;;;12661653;23;20547;-76
2022/04/17 02:07:38;;;;;;;3.53;3.33;;;;;;;;;;12662013;23;20268;-76
2022/04/17 02:12:39;;;;;;;4.10;3.80;;;;;;;;;;12660843;23;20192;-76
2022/04/17 02:17:41;;;;;;;3.70;3.50;;;;;;;;;;12662846;23;20196;-76
2022/04/17 02:22:44;;;;;;;4.07;3.70;;;;;;;;;;12661668;23;20180;-76
2022/04/17 02:27:45;;;;;;;5.87;3.37;;;;;;;;;;12662087;23;20181;-76
2022/04/17 02:32:46;;;;;;;3.28;3.05;;;;;;;;;;12660283;23;20662;-76
2022/04/17 02:37:47;;;;;;;3.40;3.10;;;;;;;;;;12662076;23;20181;-75
2022/04/17 02:42:49;;;;;;;3.13;2.95;;;;;;;;;;12664877;23;20263;-76
2022/04/17 02:47:51;;;;;;;4.20;3.90;;;;;;;;;;12666913;23;20197;-76
2022/04/17 02:52:55;;;;;;;5.18;3.83;;;;;;;;;;12664966;23;20173;-77
2022/04/17 02:57:56;;;;;;;4.17;3.77;;;;;;;;;;12666094;23;20181;-77
2022/04/17 03:08:18;;;;;;;5.40;4.43;;;;;;;;;;12664752;23;20247;-77
2022/04/17 03:13:19;;;;;;;5.73;4.53;;;;;;;;;;12664718;23;20192;-76
2022/04/17 03:18:20;;;;;;;6.03;4.40;;;;;;;;;;12664749;23;20177;-76
2022/04/17 03:23:21;;;;;;;6.07;4.20;;;;;;;;;;12663120;23;20188;-75
2022/04/17 03:28:22;;;;;;;4.67;4.10;;;;;;;;;;12667221;23;20177;-76
2022/04/17 03:33:23;;;;;;;3.63;3.33;;;;;;;;;;12665198;23;20205;-76
2022/04/17 03:38:24;;;;;;;3.43;3.13;;;;;;;;;;12665899;23;20173;-75
2022/04/17 03:43:26;;;;;;;2.43;2.23;;;;;;;;;;12666954;23;20212;-75
2022/04/17 03:48:27;;;;;;;2.77;2.60;;;;;;;;;;12666869;23;20634;-75
2022/04/17 03:53:28;;;;;;;2.47;2.37;;;;;;;;;;12664299;23;20233;-75
2022/04/17 03:58:30;;;;;;;2.90;2.20;;;;;;;;;;12667222;23;20188;-74
2022/04/17 04:03:32;;;;;;;2.10;2.00;;;;;;;;;;12663077;23;20275;-74
2022/04/17 04:08:33;;;;;;;2.50;2.37;;;;;;;;;;12666039;23;20302;-74
2022/04/17 04:13:34;;;;;;;3.33;3.07;;;;;;;;;;12664599;23;20189;-75
2022/04/17 04:18:35;;;;;;;2.87;2.67;;;;;;;;;;12637307;23;20189;-74
2022/04/17 04:23:36;;;;;;;3.40;3.10;;;;;;;;;;12660263;23;20502;-74
2022/04/17 04:28:37;;;;;;;2.90;2.80;;;;;;;;;;12665787;23;20181;-74
2022/04/17 04:33:40;;;;;;;3.23;3.03;;;;;;;;;;12661889;23;20232;-74
2022/04/17 04:38:41;;;;;;;2.80;2.50;;;;;;;;;;12664464;23;20176;-74
2022/04/17 04:43:42;;;;;;;3.60;3.30;;;;;;;;;;12664496;23;20253;-74
2022/04/17 04:54:07;;;;;;;3.67;3.47;;;;;;;;;;12663479;23;20196;-74
2022/04/17 04:59:09;;;;;;;4.77;4.47;;;;;;;;;;12661270;23;20522;-64
2022/04/17 05:04:10;;;;;;;4.70;4.30;;;;;;;;;;12661955;23;20284;-74
2022/04/17 05:09:11;;;;;;;5.07;4.67;;;;;;;;;;12663179;23;20242;-74
2022/04/17 05:14:12;;;;;;;5.07;4.60;;;;;;;;;;12662420;23;20236;-74
2022/04/17 05:19:20;;;;;;;5.40;4.90;;;;;;;;;;12662395;23;20212;-73
2022/04/17 05:24:21;;;;;;;5.77;5.33;;;;;;;;;;12661823;23;20264;-73
2022/04/17 05:29:22;;;;;;;6.03;5.47;;;;;;;;;;12662303;23;20558;-72
2022/04/17 05:34:23;;;;;;;4.90;4.40;;;;;;;;;;12660828;23;20271;-74
2022/04/17 05:39:25;;;;;;;4.00;3.70;;;;;;;;;;12659683;23;20567;-73
2022/04/17 05:44:26;;;;;;;4.67;3.50;;;;;;;;;;12662167;23;20667;-74
2022/04/17 05:49:27;;;;;;;4.53;3.93;;;;;;;;;;12661563;23;20653;-74
2022/04/17 05:54:29;;;;;;;3.90;3.42;;;;;;;;;;12659546;23;20200;-73
2022/04/17 05:59:30;;;;;;;3.33;3.23;;;;;;;;;;12661518;23;20192;-74
2022/04/17 06:04:31;;;;;;;3.80;3.60;;;;;;;;;;12660603;23;20205;-74
2022/04/17 06:09:32;;;;;;;3.77;3.47;;;;;;;;;;12660814;23;20181;-73
2022/04/17 06:14:33;;;;;;;3.40;3.20;;;;;;;;;;12662122;23;20219;-74
2022/04/17 06:19:34;;;;;;;3.88;3.58;;;;;;;;;;12665190;23;20181;-74
2022/04/17 06:24:35;;;;;;;4.03;3.65;;;;;;;;;;12665277;23;20181;-74
2022/04/17 06:29:37;;;;;;;4.10;3.75;;;;;;;;;;12666456;23;20187;-74
2022/04/17 06:34:38;;;;;;;3.90;3.55;;;;;;;;;;12663765;23;20204;-74
2022/04/17 06:39:39;;;;;;;3.72;3.53;;;;;;;;;;12663269;23;20177;-74
2022/04/17 06:44:40;;;;;;;2.83;2.72;;;;;;;;;;12665732;23;20216;-75
2022/04/17 06:49:41;;;;;;;2.55;2.50;;;;;;;;;;12640244;23;20204;-65
2022/04/17 06:54:42;;;;;;;3.00;2.80;;;;;;;;;;12640673;23;20199;-75
2022/04/17 06:59:43;;;;;;;2.65;2.55;;;;;;;;;;12665982;23;20185;-75
2022/04/17 07:04:44;;;;;;;2.95;2.78;;;;;;;;;;12666916;23;20558;-77
2022/04/17 07:09:45;;;;;;;3.22;2.90;;;;;;;;;;12668200;23;20188;-78
2022/04/17 07:14:47;;;;;;;3.40;3.20;;;;;;;;;;12668298;23;20192;-77
2022/04/17 07:19:48;;;;;;;2.58;2.47;;;;;;;;;;12669090;23;20177;-77
2022/04/17 07:24:53;;;;;;;4.32;2.60;;;;;;;;;;12666966;23;20180;-77
2022/04/17 07:29:55;;;;;;;4.40;2.72;;;;;;;;;;12668103;23;20615;-76
2022/04/17 07:34:56;;;;;;;2.22;2.17;;;;;;;;;;12640452;23;20651;-76
2022/04/17 07:39:57;;;;;;;1.70;1.70;;;;;;;;;;12662095;23;20173;-74
2022/04/17 07:44:58;;;;;;;1.52;1.42;;;;;;;;;;12604357;23;20528;-74
2022/04/17 07:49:59;;;;;;;1.13;1.13;;;;;;;;;;12605834;23;20992;-75
2022/04/17 07:55:01;;;;;;;1.08;0.80;;;;;;;;;;12603324;23;20248;-75
2022/04/17 08:00:03;;;;;;;0.63;0.60;;;;;;;;;;12604802;23;20186;-74
2022/04/17 08:05:12;;;;;;;0.50;0.50;;;;;;;;;;12602069;23;20213;-75
2022/04/17 08:10:13;;;;;;;2.17;0.80;;;;;;;;;;12602917;23;20249;-74
2022/04/17 08:15:14;;;;;;;0.65;0.65;;;;;;;;;;12602008;23;20280;-74
2022/04/17 08:20:15;;;;;;;0.70;0.70;;;;;;;;;;12595916;23;20205;-74
2022/04/17 08:25:16;;;;;;;2.38;0.60;;;;;;;;;;12596821;23;20189;-75
2022/04/17 08:30:21;;;;;;;0.70;0.70;;;;;;;;;;12597552;23;20185;-63
2022/04/17 08:35:23;;;;;;;0.60;0.60;;;;;;;;;;12598325;23;20196;-74
2022/04/17 08:40:26;;;;;;;0.60;0.60;;;;;;;;;;12602828;23;20279;-73
2022/04/17 08:45:28;;;;;;;1.65;0.80;;;;;;;;;;12658098;23;20181;-74
2022/04/17 08:50:29;;;;;;;0.60;0.60;;;;;;;;;;12660516;23;20938;-72
2022/04/17 08:55:30;;;;;;;0.70;0.70;;;;;;;;;;12634379;23;21006;-73
2022/04/17 09:00:31;;;;;;;0.75;0.75;;;;;;;;;;12661962;23;20189;-73
2022/04/17 09:05:33;;;;;;;1.05;0.82;;;;;;;;;;12659413;23;20177;-73
2022/04/17 09:10:34;;;;;;;0.82;0.82;;;;;;;;;;12633871;23;20268;-72
2022/04/17 09:15:36;;;;;;;14.27;13.00;;;;;;;;;;12656898;23;20224;-73
2022/04/17 09:20:37;;;;;;;0.98;0.98;;;;;;;;;;12659717;23;20189;-73
2022/04/17 09:25:38;;;;;;;0.77;0.77;;;;;;;;;;12658934;23;20209;-73
2022/04/17 09:30:46;;;;;;;2.70;1.27;;;;;;;;;;12659267;23;20207;-73
2022/04/17 09:35:54;;;;;;;1.50;1.35;;;;;;;;;;12659870;23;20196;-73
2022/04/17 09:41:05;;;;;;;1.63;1.52;;;;;;;;;;12659665;23;20208;-73
2022/04/17 09:46:07;;;;;;;2.95;1.50;;;;;;;;;;12658572;23;20203;-72
2022/04/17 09:51:22;;;;;;;1.42;1.42;;;;;;;;;;12658854;23;20607;-70
2022/04/17 09:56:31;;;;;;;1.67;1.58;;;;;;;;;;12660565;23;20205;-72
2022/04/17 10:01:33;;;;;;;1.38;1.38;;;;;;;;;;12658175;23;20203;-72
2022/04/17 10:06:34;;;;;;;1.27;1.23;;;;;;;;;;12635577;23;20188;-73
2022/04/17 10:11:37;;;;;;;1.30;1.30;;;;;;;;;;12661752;23;20208;-74
2022/04/17 10:16:42;;;;;;;2.05;1.42;;;;;;;;;;12660859;23;20193;-75
2022/04/17 10:21:45;;;;;;;2.13;2.00;;;;;;;;;;12663021;23;20319;-80
2022/04/17 10:26:50;;;;;;;3.17;3.00;;;;;;;;;;12642103;23;20216;-80
2022/04/17 10:32:05;;;;;;;1.33;1.23;;;;;;;;;;12636198;23;20312;-75
2022/04/17 10:37:25;;;;;;;1.60;1.52;;;;;;;;;;12659538;23;20228;-73
2022/04/17 10:42:34;;;;;;;4.03;3.83;;;;;;;;;;12658219;23;20212;-71
2022/04/17 10:47:35;;;;;;;1.10;1.00;;;;;;;;;;12659806;23;20177;-74
2022/04/17 10:52:37;;;;;;;1.27;1.27;;;;;;;;;;12660087;23;20177;-75
2022/04/17 10:57:48;;;;;;;2.28;1.52;;;;;;;;;;12635264;23;20272;-76
2022/04/17 11:02:49;;;;;;;1.70;1.60;;;;;;;;;;12661503;23;20197;-76
2022/04/17 11:08:10;;;;;;;1.90;1.90;;;;;;;;;;12662342;23;20216;-76
2022/04/17 11:13:11;;;;;;;4.38;4.05;;;;;;;;;;12661935;23;20224;-76
2022/04/17 11:18:12;;;;;;;1.55;1.35;;;;;;;;;;12663224;23;20185;-74
2022/04/17 11:23:13;;;;;;;1.10;1.10;;;;;;;;;;12663295;23;20196;-73
2022/04/17 11:28:34;;;;;;;1.50;1.50;;;;;;;;;;12663405;23;20180;-74
2022/04/17 11:33:35;;;;;;;1.27;1.27;;;;;;;;;;12661765;23;20892;-75
2022/04/17 11:38:42;;;;;;;2.92;1.30;;;;;;;;;;12660874;23;20180;-75
2022/04/17 11:43:58;;;;;;;1.10;1.10;;;;;;;;;;12662313;23;20311;-74
2022/04/17 11:48:59;;;;;;;0.98;0.98;;;;;;;;;;12662876;23;20188;-73
2022/04/17 11:54:00;;;;;;;0.93;0.93;;;;;;;;;;12662325;23;20699;-74
2022/04/17 11:59:05;;;;;;;0.95;0.95;;;;;;;;;;12660320;23;20176;-74
2022/04/17 12:04:06;;;;;;;0.90;0.90;;;;;;;;;;12657442;23;20208;-74
2022/04/17 12:09:07;;;;;;;1.33;1.33;;;;;;;;;;12658117;23;20297;-74
2022/04/17 12:14:12;;;;;;;1.63;1.23;;;;;;;;;;12657964;23;20288;-74
2022/04/17 12:19:16;;;;;;;1.42;1.33;;;;;;;;;;12660353;23;20208;-75
2022/04/17 12:24:17;;;;;;;1.10;1.10;;;;;;;;;;12660014;23;20272;-75
2022/04/17 12:29:18;;;;;;;1.00;1.00;;;;;;;;;;12659393;23;20188;-75
2022/04/17 12:34:20;;;;;;;0.88;0.88;;;;;;;;;;12633611;23;20247;-74
2022/04/17 12:39:41;;;;;;;0.80;0.80;;;;;;;;;;12662368;23;20251;-74
2022/04/17 12:44:42;;;;;;;1.23;0.77;;;;;;;;;;12658971;23;20828;-77
2022/04/17 12:49:43;;;;;;;1.33;1.33;;;;;;;;;;12660528;23;20192;-77
2022/04/17 12:54:45;;;;;;;2.55;0.88;;;;;;;;;;12661811;23;20723;-76
2022/04/17 12:59:50;;;;;;;0.85;0.85;;;;;;;;;;12659070;23;20181;-76
2022/04/17 13:04:55;;;;;;;1.15;1.15;;;;;;;;;;12659459;23;20215;-75
2022/04/17 13:09:58;;;;;;;1.23;0.88;;;;;;;;;;12660295;23;20181;-75
2022/04/17 13:15:00;;;;;;;0.60;0.60;;;;;;;;;;12657716;23;20196;-77
2022/04/17 13:20:01;;;;;;;6.32;1.00;;;;;;;;;;12653647;23;20188;-79
2022/04/17 13:25:03;;;;;;;1.88;0.73;;;;;;;;;;12652769;23;20296;-70
2022/04/17 13:30:07;;;;;;;0.73;0.50;;;;;;;;;;12655459;23;20181;-77
2022/04/17 13:35:09;;;;;;;0.68;0.68;;;;;;;;;;12656275;23;20205;-72
2022/04/17 13:40:10;;;;;;;0.63;0.63;;;;;;;;;;12654422;23;21127;-71
2022/04/17 13:45:11;;;;;;;2.45;0.93;;;;;;;;;;12597964;23;20193;-70
2022/04/17 13:50:12;;;;;;;1.23;0.73;;;;;;;;;;12598612;23;20181;-70
2022/04/17 13:55:16;;;;;;;2.55;0.80;;;;;;;;;;12594159;23;20190;-70
2022/04/17 14:00:17;;;;;;;0.80;0.80;;;;;;;;;;12568049;23;20185;-69
2022/04/17 14:05:18;;;;;;;0.60;0.60;;;;;;;;;;12566759;23;20211;-72
2022/04/17 14:10:19;;;;;;;2.65;0.80;;;;;;;;;;12592996;23;20185;-77
2022/04/17 14:15:20;;;;;;;5.68;0.63;;;;;;;;;;12597648;23;20197;-78
2022/04/17 14:20:21;;;;;;;0.90;0.90;;;;;;;;;;12595390;23;20189;-75
2022/04/17 14:25:22;;;;;;;1.08;0.70;;;;;;;;;;12598167;23;20178;-79
2022/04/17 14:30:23;;;;;;;5.30;0.70;;;;;;;;;;12601545;23;20192;-80
2022/04/17 14:35:24;;;;;;;0.90;0.80;;;;;;;;;;12606938;23;20643;-79
2022/04/17 14:40:25;;;;;;;0.70;0.70;;;;;;;;;;12614463;23;20297;-79
2022/04/17 14:45:27;;;;;;;1.05;0.70;;;;;;;;;;12670056;23;20189;-77
2022/04/17 14:50:28;;;;;;;1.48;0.90;;;;;;;;;;12664861;23;20181;-78
2022/04/17 14:55:29;;;;;;;1.27;0.73;;;;;;;;;;12661139;23;20726;-76
2022/04/17 15:00:31;;;;;;;0.80;0.80;;;;;;;;;;12660908;23;20183;-77
2022/04/17 15:05:32;;;;;;;0.88;0.88;;;;;;;;;;12666546;23;20887;-73
2022/04/17 15:10:33;;;;;;;1.27;1.27;;;;;;;;;;12639720;23;20188;-77
2022/04/17 15:15:34;;;;;;;0.80;0.80;;;;;;;;;;12663632;23;20196;-74
2022/04/17 15:20:35;;;;;;;1.20;1.00;;;;;;;;;;12659182;23;20770;-72
2022/04/17 15:25:37;;;;;;;1.27;1.17;;;;;;;;;;12659087;23;20193;-71
2022/04/17 15:30:39;;;;;;;1.05;1.05;;;;;;;;;;12657629;23;20535;-71
2022/04/17 15:35:40;;;;;;;3.25;1.70;;;;;;;;;;12632327;23;20529;-69
2022/04/17 15:40:41;;;;;;;1.38;1.35;;;;;;;;;;12657784;23;20212;-66
2022/04/17 15:51:02;;;;;;;1.20;1.10;;;;;;;;;;12657221;23;20181;-64
2022/04/17 15:56:04;;;;;;;1.08;1.08;;;;;;;;;;12656126;23;20631;-65
2022/04/17 16:01:05;;;;;;;1.10;1.00;;;;;;;;;;12656794;23;20734;-67
2022/04/17 16:06:07;;;;;;;0.90;0.90;;;;;;;;;;12657214;23;20296;-66
2022/04/17 16:11:08;;;;;;;0.70;0.70;;;;;;;;;;12656883;23;20188;-64
2022/04/17 16:16:09;;;;;;;0.85;0.85;;;;;;;;;;12657725;23;20233;-66
2022/04/17 16:21:11;;;;;;;3.55;3.45;;;;;;;;;;12657231;23;20181;-68
2022/04/17 16:26:13;;;;;;;0.80;0.80;;;;;;;;;;12658108;23;20258;-67
2022/04/17 16:31:14;;;;;;;2.38;0.60;;;;;;;;;;12656175;23;20209;-66
2022/04/17 16:36:15;;;;;;;1.77;0.90;;;;;;;;;;12657234;23;20197;-67
2022/04/17 16:41:17;;;;;;;0.90;0.90;;;;;;;;;;12656149;23;20937;-66
2022/04/17 16:46:18;;;;;;;0.50;0.50;;;;;;;;;;12659568;23;20197;-66
2022/04/17 16:51:19;;;;;;;0.80;0.80;;;;;;;;;;12658376;23;20268;-69
2022/04/17 16:56:20;;;;;;;0.70;0.70;;;;;;;;;;12656945;23;20192;-68
2022/04/17 17:01:21;;;;;;;0.55;0.55;;;;;;;;;;12655791;23;20207;-69
2022/04/17 17:06:22;;;;;;;3.28;1.17;;;;;;;;;;12656891;23;20639;-69
2022/04/17 17:11:23;;;;;;;0.60;0.60;;;;;;;;;;12656564;23;20251;-69
2022/04/17 17:16:24;;;;;;;0.60;0.60;;;;;;;;;;12659088;23;20646;-71
2022/04/17 17:21:26;;;;;;;0.77;0.70;;;;;;;;;;12659656;23;20177;-71
2022/04/17 17:26:27;;;;;;;0.60;0.60;;;;;;;;;;12660307;23;20192;-71
2022/04/17 17:31:28;;;;;;;0.88;0.88;;;;;;;;;;12657166;23;20260;-70
2022/04/17 17:36:29;;;;;;;1.20;1.20;;;;;;;;;;12655577;23;20231;-70
2022/04/17 17:41:30;;;;;;;4.20;4.00;;;;;;;;;;12655266;23;20220;-69
2022/04/17 17:46:31;;;;;;;1.67;1.67;;;;;;;;;;12657435;23;20267;-69
2022/04/17 17:51:32;;;;;;;1.38;1.10;;;;;;;;;;12654692;23;20208;-66
2022/04/17 17:56:37;;;;;;;0.90;0.90;;;;;;;;;;12656428;23;20256;-70
2022/04/17 18:01:39;;;;;;;2.10;2.00;;;;;;;;;;12656071;23;20212;-71
2022/04/17 18:06:40;;;;;;;3.55;3.45;;;;;;;;;;12656083;23;20260;-70
2022/04/17 18:17:02;;;;;;;1.48;0.70;;;;;;;;;;12660766;23;20208;-71
2022/04/17 18:27:22;;;;;;;3.50;3.40;;;;;;;;;;12661319;23;20204;-71
2022/04/17 18:32:23;;;;;;;1.25;1.23;;;;;;;;;;12659797;23;20207;-71
2022/04/17 18:37:24;;;;;;;1.38;1.35;;;;;;;;;;12635538;23;20208;-70
2022/04/17 18:42:26;;;;;;;1.30;1.30;;;;;;;;;;12633935;23;20201;-70
2022/04/17 18:47:27;;;;;;;1.23;1.23;;;;;;;;;;12660701;23;20176;-70
2022/04/17 18:52:28;;;;;;;2.67;2.67;;;;;;;;;;12660912;23;20243;-70
2022/04/17 18:57:29;;;;;;;2.42;2.42;;;;;;;;;;12631452;23;20200;-70
2022/04/17 19:02:30;;;;;;;2.72;2.63;;;;;;;;;;12655973;23;20256;-70
2022/04/17 19:07:31;;;;;;;1.70;1.65;;;;;;;;;;12660656;23;20259;-70
2022/04/17 19:17:52;;;;;;;2.67;2.47;;;;;;;;;;12659092;23;20900;-70
2022/04/17 19:22:53;;;;;;;1.70;1.70;;;;;;;;;;12661227;23;20220;-70
2022/04/17 19:27:54;;;;;;;1.92;1.70;;;;;;;;;;12662523;23;20180;-70
2022/04/17 19:38:16;;;;;;;1.30;1.30;;;;;;;;;;12663483;23;20650;-68
2022/04/17 19:43:18;;;;;;;3.97;1.60;;;;;;;;;;12660856;23;20273;-69
2022/04/17 19:48:19;;;;;;;1.70;1.60;;;;;;;;;;12663718;23;20612;-69
2022/04/17 19:53:22;;;;;;;3.63;1.83;;;;;;;;;;12663636;23;20209;-69
2022/04/17 19:58:23;;;;;;;3.65;3.45;;;;;;;;;;12637653;23;20193;-69
2022/04/17 20:03:25;;;;;;;6.25;5.65;;;;;;;;;;12660744;23;20276;-69
2022/04/17 20:08:26;;;;;;;9.23;8.23;;;;;;;;;;12662238;23;20524;-69
2022/04/17 20:13:31;;;;;;;19.45;13.00;;;;;;;;;;12661209;23;20184;-69
2022/04/17 20:18:32;;;;;;;8.82;7.93;;;;;;;;;;12663534;23;20188;-69
2022/04/17 20:23:33;;;;;;;11.82;8.68;;;;;;;;;;12663030;23;20189;-69
2022/04/17 20:28:34;;;;;;;8.27;7.20;;;;;;;;;;12662723;23;20212;-69
2022/04/17 20:33:35;;;;;;;6.55;4.75;;;;;;;;;;12661325;23;20272;-69
2022/04/17 20:38:36;;;;;;;4.57;4.28;;;;;;;;;;12663053;23;20236;-69
2022/04/17 20:54:17;;;;;;;6.15;5.50;;;;;;;;;;12661952;23;20228;-69
2022/04/17 20:59:18;;;;;;;12.80;8.90;;;;;;;;;;12662616;23;20235;-69
2022/04/17 21:04:19;;;;;;;11.73;7.88;;;;;;;;;;12636239;23;20231;-69
2022/04/17 21:09:20;;;;;;;9.30;6.53;;;;;;;;;;12661453;23;20189;-69
2022/04/17 21:14:21;;;;;;;4.93;4.43;;;;;;;;;;12663102;23;20193;-69
2022/04/17 21:19:22;;;;;;;3.80;3.30;;;;;;;;;;12660853;23;20691;-69
2022/04/17 21:24:23;;;;;;;2.92;2.72;;;;;;;;;;12659580;23;20181;-69
2022/04/17 21:29:24;;;;;;;3.00;2.80;;;;;;;;;;12655984;23;20188;-69
2022/04/17 21:34:26;;;;;;;3.13;2.92;;;;;;;;;;12656877;23;20272;-69
2022/04/17 21:39:28;;;;;;;3.15;2.95;;;;;;;;;;12659543;23;20592;-69
2022/04/17 21:44:29;;;;;;;4.05;3.75;;;;;;;;;;12659371;23;20706;-69
2022/04/17 21:49:30;;;;;;;3.80;3.50;;;;;;;;;;12659796;23;20634;-69
2022/04/17 21:54:31;;;;;;;4.18;3.92;;;;;;;;;;12660440;23;20280;-69
2022/04/17 22:04:52;;;;;;;4.40;4.10;;;;;;;;;;12658926;23;20267;-69
2022/04/17 22:09:53;;;;;;;3.80;3.58;;;;;;;;;;12660892;23;20181;-68
2022/04/17 22:14:54;;;;;;;4.35;4.07;;;;;;;;;;12659813;23;20201;-69
2022/04/17 22:19:55;;;;;;;4.80;4.20;;;;;;;;;;12660586;23;20300;-70
2022/04/17 22:24:56;;;;;;;4.15;3.80;;;;;;;;;;12660037;23;20183;-69
2022/04/17 22:29:58;;;;;;;3.35;3.10;;;;;;;;;;12659636;23;20181;-69
2022/04/17 22:35:01;;;;;;;3.28;3.08;;;;;;;;;;12658511;23;20726;-69
2022/04/17 22:40:02;;;;;;;3.08;2.90;;;;;;;;;;12657953;23;20181;-68
2022/04/17 22:45:04;;;;;;;3.63;3.00;;;;;;;;;;12599102;23;20193;-69
2022/04/17 22:50:05;;;;;;;3.70;3.38;;;;;;;;;;12600338;23;20221;-69
2022/04/17 22:55:08;;;;;;;3.47;3.17;;;;;;;;;;12599499;23;20198;-68
2022/04/17 23:05:29;;;;;;;3.33;3.03;;;;;;;;;;12601936;23;20200;-68
2022/04/17 23:10:30;;;;;;;3.17;2.95;;;;;;;;;;12602309;23;20209;-68
2022/04/17 23:15:31;;;;;;;3.15;2.80;;;;;;;;;;12576187;23;20197;-68
2022/04/17 23:20:32;;;;;;;2.72;2.63;;;;;;;;;;12600898;23;20575;-68
2022/04/17 23:25:33;;;;;;;2.78;2.67;;;;;;;;;;12602607;23;20209;-68
2022/04/17 23:30:34;;;;;;;2.45;2.25;;;;;;;;;;12601677;23;20253;-68
2022/04/17 23:35:35;;;;;;;2.75;2.65;;;;;;;;;;12601584;23;20220;-68
2022/04/17 23:40:36;;;;;;;3.30;3.10;;;;;;;;;;12608941;23;20884;-68
2022/04/17 23:45:37;;;;;;;3.85;2.95;;;;;;;;;;12661460;23;20643;-68
2022/04/17 23:50:38;;;;;;;3.00;2.78;;;;;;;;;;12662639;23;20188;-68
2022/04/17 23:55:39;;;;;;;3.35;3.15;;;;;;;;;;12660697;23;20514;-68
